Time;durP1;ratioP1;P1;durP2;ratioP2;P2;SDS_P1;SDS_P2;PMS_P1;PMS_P2;Temp;Humidity;BMP_temperature;BMP_pressure;BME280_temperature;BME280_humidity;BME280_pressure;Samples;Min_cycle;Max_cycle;Signal;HPM_P1;HPM_P2
2022/11/20 00:01:16;;;;;;;33.90;20.43;;;;;;;-2.80;77.24;100921.69;5113846;28;20436;-69
2022/11/20 00:03:43;;;;;;;33.40;19.40;;;;;;;-2.83;76.28;100919.97;5114039;28;20456;-69
2022/11/20 00:06:12;;;;;;;35.00;20.30;;;;;;;-2.82;77.45;100913.84;5113944;28;20430;-69
2022/11/20 00:08:38;;;;;;;31.60;19.67;;;;;;;-2.91;76.27;100913.09;5113724;28;20462;-69
2022/11/20 00:11:09;;;;;;;34.37;19.10;;;;;;;-2.94;76.89;100906.16;5113758;28;20919;-69
2022/11/20 00:13:45;;;;;;;37.23;18.97;;;;;;;-2.95;77.51;100916.66;5114267;28;20445;-69
2022/11/20 00:16:15;;;;;;;38.23;19.73;;;;;;;-2.93;77.64;100914.88;5113892;28;20416;-69
2022/11/20 00:18:42;;;;;;;32.73;19.10;;;;;;;-2.96;77.85;100915.78;5113970;28;20421;-69
2022/11/20 00:21:23;;;;;;;32.23;19.80;;;;;;;-2.97;76.97;100914.03;5115686;28;20455;-69
2022/11/20 00:23:50;;;;;;;32.20;19.10;;;;;;;-3.02;78.49;100914.13;5117779;28;20452;-69
2022/11/20 00:26:21;;;;;;;33.47;18.83;;;;;;;-3.02;78.74;100908.88;5118107;28;20414;-69
2022/11/20 00:28:57;;;;;;;29.73;19.17;;;;;;;-3.02;77.82;100900.13;5117599;28;20497;-69
2022/11/20 00:31:24;;;;;;;36.97;20.13;;;;;;;-3.06;78.74;100903.69;5117948;28;20898;-69
2022/11/20 00:33:51;;;;;;;38.33;21.23;;;;;;;-3.05;78.20;100902.81;5117754;28;20449;-69
2022/11/20 00:36:20;;;;;;;31.57;18.80;;;;;;;-3.07;77.99;100905.44;5118142;28;20810;-69
2022/11/20 00:38:47;;;;;;;26.20;18.37;;;;;;;-3.06;78.73;100908.94;5117603;28;20822;-69
2022/11/20 00:41:15;;;;;;;33.67;19.60;;;;;;;-3.03;78.92;100906.28;5117567;28;20425;-69
2022/11/20 00:43:42;;;;;;;31.93;19.87;;;;;;;-3.09;77.82;100907.22;5117307;28;20543;-69
2022/11/20 00:46:12;;;;;;;38.97;19.80;;;;;;;-3.15;78.54;100902.06;5117439;28;20436;-69
2022/11/20 00:48:39;;;;;;;35.57;18.97;;;;;;;-3.11;78.79;100909.00;5117540;28;20452;-69
2022/11/20 00:51:05;;;;;;;31.90;18.93;;;;;;;-3.12;77.70;100896.78;5117329;28;20451;-69
2022/11/20 00:53:32;;;;;;;27.60;18.47;;;;;;;-3.09;77.90;100906.34;5117126;28;20441;-69
2022/11/20 00:56:04;;;;;;;29.03;19.10;;;;;;;-3.12;79.19;100904.63;5117496;28;20432;-69
2022/11/20 00:58:36;;;;;;;35.83;20.40;;;;;;;-3.14;77.62;100900.28;5117279;28;20428;-69
2022/11/20 01:01:06;;;;;;;29.53;18.93;;;;;;;-3.11;77.62;100898.53;5117440;28;20429;-69
2022/11/20 01:03:39;;;;;;;33.53;20.37;;;;;;;-3.18;79.11;100899.47;5117108;28;20445;-69
2022/11/20 01:06:20;;;;;;;30.60;19.40;;;;;;;-3.19;78.54;100900.34;5117418;28;20413;-69
2022/11/20 01:08:48;;;;;;;27.17;17.83;;;;;;;-3.19;79.35;100905.59;5117229;28;20441;-69
2022/11/20 01:11:17;;;;;;;38.53;20.57;;;;;;;-3.21;78.83;100900.41;5117520;28;20779;-69
2022/11/20 01:13:46;;;;;;;33.27;20.37;;;;;;;-3.19;78.05;100891.63;5117405;28;20457;-69
2022/11/20 01:16:13;;;;;;;35.10;18.93;;;;;;;-3.24;79.53;100896.94;5117136;28;20426;-69
2022/11/20 01:18:42;;;;;;;29.10;18.60;;;;;;;-3.26;79.24;100899.56;5116741;28;20417;-69
2022/11/20 01:21:12;;;;;;;41.87;19.60;;;;;;;-3.25;79.93;100892.59;5116789;28;20446;-69
2022/11/20 01:23:40;;;;;;;28.00;18.60;;;;;;;-3.22;79.83;100887.31;5117140;28;20777;-69
2022/11/20 01:26:10;;;;;;;34.40;19.97;;;;;;;-3.24;78.74;100889.94;5116867;28;20428;-69
2022/11/20 01:28:36;;;;;;;31.37;20.47;;;;;;;-3.31;79.99;100885.66;5116938;28;20972;-69
2022/11/20 01:31:14;;;;;;;32.47;18.97;;;;;;;-3.34;79.53;100882.22;5116574;28;20430;-69
2022/11/20 01:33:42;;;;;;;32.20;20.50;;;;;;;-3.27;78.61;100876.03;5116643;28;20455;-69
2022/11/20 01:36:09;;;;;;;30.57;19.17;;;;;;;-3.31;79.51;100871.72;5116779;28;20421;-69
2022/11/20 01:38:36;;;;;;;33.17;20.40;;;;;;;-3.28;79.27;100866.41;5116262;28;20436;-69
2022/11/20 01:41:03;;;;;;;35.87;19.63;;;;;;;-3.29;78.40;100860.31;5116821;28;20436;-69
2022/11/20 01:43:29;;;;;;;34.43;20.07;;;;;;;-3.33;80.03;100855.16;5116498;28;20544;-68
2022/11/20 01:46:00;;;;;;;33.93;20.40;;;;;;;-3.35;80.41;100859.53;5116671;28;20524;-68
2022/11/20 01:49:13;;;;;;;43.23;20.47;;;;;;;-3.37;80.83;100863.94;5116257;28;20453;-68
2022/11/20 01:51:52;;;;;;;40.63;21.17;;;;;;;-3.34;79.15;100864.75;5116419;28;20767;-68
2022/11/20 01:54:25;;;;;;;36.87;19.77;;;;;;;-3.34;79.97;100879.59;5116012;28;20455;-68
2022/11/20 01:56:55;;;;;;;29.07;20.40;;;;;;;-3.36;80.23;100876.13;5116011;28;20414;-69
2022/11/20 01:59:23;;;;;;;34.23;19.67;;;;;;;-3.35;80.19;100876.13;5116250;28;20421;-68
2022/11/20 02:01:50;;;;;;;40.53;20.73;;;;;;;-3.31;79.31;100874.31;5116366;28;20779;-68
2022/11/20 02:04:16;;;;;;;31.27;19.50;;;;;;;-3.33;80.50;100883.94;5115704;28;20973;-69
2022/11/20 02:06:49;;;;;;;35.17;19.33;;;;;;;-3.31;79.08;100875.19;5116270;28;20444;-69
2022/11/20 02:09:16;;;;;;;42.93;20.77;;;;;;;-3.32;80.41;100868.22;5116200;28;20445;-69
2022/11/20 02:11:42;;;;;;;35.63;20.50;;;;;;;-3.35;79.67;100868.28;5115957;28;20810;-69
2022/11/20 02:14:10;;;;;;;27.20;18.17;;;;;;;-3.46;80.56;100851.81;5116375;28;20441;-69
2022/11/20 02:16:43;;;;;;;29.27;19.47;;;;;;;-3.52;78.92;100841.41;5116022;28;20433;-69
2022/11/20 02:19:28;;;;;;;25.23;17.20;;;;;;;-3.49;79.98;100852.72;5115608;28;20413;-69
2022/11/20 02:22:13;;;;;;;27.70;19.37;;;;;;;-3.50;80.76;100844.88;5115510;28;20444;-69
2022/11/20 02:24:41;;;;;;;32.23;18.53;;;;;;;-3.49;80.88;100859.72;5115756;28;20436;-69
2022/11/20 02:27:11;;;;;;;34.43;19.40;;;;;;;-3.53;80.86;100858.88;5115417;28;20829;-69
2022/11/20 02:29:42;;;;;;;31.17;21.37;;;;;;;-3.57;79.69;100853.69;5115275;28;20464;-69
2022/11/20 02:32:23;;;;;;;31.90;20.37;;;;;;;-3.54;79.63;100848.44;5115820;28;20416;-69
2022/11/20 02:34:50;;;;;;;36.57;19.33;;;;;;;-3.60;79.78;100844.13;5115928;28;20416;-69
2022/11/20 02:37:17;;;;;;;31.20;19.23;;;;;;;-3.60;79.40;100836.28;5116042;28;20746;-69
2022/11/20 02:39:46;;;;;;;35.27;20.37;;;;;;;-3.65;79.95;100845.94;5115345;28;20427;-69
2022/11/20 02:42:13;;;;;;;30.67;18.93;;;;;;;-3.66;79.32;100849.47;5115247;28;20784;-69
2022/11/20 02:44:39;;;;;;;34.03;18.40;;;;;;;-3.69;79.36;100844.22;5114338;28;20954;-69
2022/11/20 02:47:06;;;;;;;33.83;20.43;;;;;;;-3.67;79.35;100826.78;5114984;28;20421;-69
2022/11/20 02:49:33;;;;;;;29.73;18.03;;;;;;;-3.75;80.80;100829.47;5115384;28;20458;-69
2022/11/20 02:51:59;;;;;;;31.23;19.03;;;;;;;-3.75;79.53;100842.56;5115150;28;20511;-69
2022/11/20 02:54:26;;;;;;;37.03;21.00;;;;;;;-3.83;80.86;100833.94;5114787;28;20456;-69
2022/11/20 02:56:52;;;;;;;25.70;17.77;;;;;;;-3.79;80.18;100840.00;5114753;28;20429;-69
2022/11/20 02:59:19;;;;;;;32.83;20.37;;;;;;;-3.82;79.50;100840.03;5114962;28;20429;-69
2022/11/20 03:01:46;;;;;;;32.17;19.50;;;;;;;-3.87;80.87;100843.56;5114649;28;20428;-69
2022/11/20 03:04:12;;;;;;;33.37;19.17;;;;;;;-3.91;79.45;100841.00;5114655;28;20990;-69
2022/11/20 03:06:38;;;;;;;29.83;18.83;;;;;;;-3.89;80.97;100834.88;5114561;28;20436;-69
2022/11/20 03:09:05;;;;;;;29.47;18.83;;;;;;;-3.86;80.68;100832.19;5114453;28;20466;-69
2022/11/20 03:11:31;;;;;;;31.17;18.53;;;;;;;-3.79;80.28;100824.31;5114471;28;20782;-69
2022/11/20 03:14:01;;;;;;;25.83;18.10;;;;;;;-3.77;81.37;100835.63;5114354;28;20450;-69
2022/11/20 03:16:28;;;;;;;28.97;17.53;;;;;;;-3.74;81.32;100832.97;5114719;28;20414;-69
2022/11/20 03:18:54;;;;;;;27.33;17.90;;;;;;;-3.73;81.70;100826.84;5114393;28;20419;-69
2022/11/20 03:21:20;;;;;;;29.17;18.63;;;;;;;-3.77;81.19;100825.16;5114107;28;20448;-69
2022/11/20 03:23:47;;;;;;;29.73;19.07;;;;;;;-3.71;80.23;100827.69;5114262;28;20535;-69
2022/11/20 03:26:19;;;;;;;27.67;19.00;;;;;;;-3.75;80.96;100829.47;5114234;28;20428;-69
2022/11/20 03:28:48;;;;;;;29.33;19.00;;;;;;;-3.72;80.18;100831.19;5114167;28;20446;-69
2022/11/20 03:31:16;;;;;;;35.93;20.33;;;;;;;-3.74;80.64;100825.09;5114675;28;20436;-69
2022/11/20 03:33:43;;;;;;;31.57;19.63;;;;;;;-3.69;82.18;100821.56;5114320;28;20463;-69
2022/11/20 03:36:13;;;;;;;33.07;20.27;;;;;;;-3.59;80.60;100831.91;5114060;28;20425;-69
2022/11/20 03:38:40;;;;;;;37.93;20.37;;;;;;;-3.64;81.09;100825.00;5114057;28;20492;-69
2022/11/20 03:41:19;;;;;;;31.60;19.23;;;;;;;-3.65;81.61;100823.25;5114030;28;20759;-69
2022/11/20 03:43:50;;;;;;;31.50;19.20;;;;;;;-3.55;81.98;100820.53;5113931;28;20448;-69
2022/11/20 03:46:17;;;;;;;30.37;18.90;;;;;;;-3.55;82.05;100818.75;5114596;28;20929;-70
2022/11/20 03:48:43;;;;;;;32.63;18.93;;;;;;;-3.53;81.79;100814.38;5113837;28;20454;-69
2022/11/20 03:51:20;;;;;;;31.43;18.83;;;;;;;-3.51;81.60;100814.38;5114489;28;20489;-69
2022/11/20 03:53:48;;;;;;;33.23;20.77;;;;;;;-3.51;81.31;100811.75;5113840;28;20460;-68
2022/11/20 03:56:16;;;;;;;39.30;20.60;;;;;;;-3.48;80.64;100804.72;5113123;28;20796;-68
2022/11/20 03:58:43;;;;;;;28.57;19.37;;;;;;;-3.37;81.50;100806.34;5113738;28;20430;-68
2022/11/20 04:01:18;;;;;;;28.23;19.50;;;;;;;-3.36;81.31;100803.69;5114273;28;20434;-68
2022/11/20 04:03:45;;;;;;;31.63;19.33;;;;;;;-3.32;82.26;100796.69;5113704;28;20831;-68
2022/11/20 04:06:23;;;;;;;37.20;20.30;;;;;;;-3.29;82.61;100800.09;5113925;28;20440;-68
2022/11/20 04:08:50;;;;;;;44.43;20.43;;;;;;;-3.29;81.43;100794.88;5114163;28;20445;-68
2022/11/20 04:11:23;;;;;;;31.23;20.17;;;;;;;-3.27;81.68;100803.56;5114363;28;20497;-68
2022/11/20 04:13:55;;;;;;;36.67;19.90;;;;;;;-3.24;81.24;100806.13;5113823;28;20451;-68
2022/11/20 04:16:23;;;;;;;30.43;18.37;;;;;;;-3.21;82.40;100793.03;5113555;28;20413;-68
2022/11/20 04:18:56;;;;;;;36.57;19.63;;;;;;;-3.17;82.02;100796.44;5113534;28;20478;-68
2022/11/20 04:21:24;;;;;;;35.90;20.83;;;;;;;-3.12;81.39;100801.63;5113550;28;20838;-69
2022/11/20 04:23:52;;;;;;;33.37;18.43;;;;;;;-3.09;81.61;100785.84;5114053;28;20451;-69
2022/11/20 04:26:19;;;;;;;34.33;20.10;;;;;;;-3.04;81.65;100797.13;5113510;28;20430;-69
2022/11/20 04:28:46;;;;;;;30.07;19.37;;;;;;;-3.01;81.56;100795.34;5113692;28;20814;-69
2022/11/20 04:31:17;;;;;;;37.17;23.00;;;;;;;-2.98;82.76;100798.81;5113421;28;20430;-69
2022/11/20 04:33:44;;;;;;;39.40;20.67;;;;;;;-2.93;82.89;100805.69;5113500;28;20449;-69
2022/11/20 04:36:23;;;;;;;34.13;20.67;;;;;;;-2.91;81.94;100817.03;5113343;28;20429;-69
2022/11/20 04:38:54;;;;;;;34.67;21.67;;;;;;;-2.87;82.22;100810.00;5113724;28;20429;-69
2022/11/20 04:41:25;;;;;;;39.53;23.40;;;;;;;-2.82;82.07;100806.41;5113683;28;20503;-69
2022/11/20 04:43:58;;;;;;;34.27;21.97;;;;;;;-2.83;82.88;100804.66;5113545;28;20815;-68
2022/11/20 04:46:26;;;;;;;37.30;21.03;;;;;;;-2.81;81.29;100810.75;5113695;28;20414;-68
2022/11/20 04:48:53;;;;;;;36.60;20.70;;;;;;;-2.76;81.87;100810.69;5113791;28;20461;-68
2022/11/20 04:51:19;;;;;;;32.80;21.33;;;;;;;-2.79;81.45;100795.88;5095617;28;20472;-69
2022/11/20 04:53:46;;;;;;;33.10;20.23;;;;;;;-2.79;82.26;100795.88;5113181;28;20453;-69
2022/11/20 04:56:13;;;;;;;27.87;20.27;;;;;;;-2.81;82.41;100792.41;5113481;28;20764;-69
2022/11/20 04:58:39;;;;;;;33.53;20.57;;;;;;;-2.78;82.56;100791.50;5113158;28;20787;-69
2022/11/20 05:01:12;;;;;;;32.90;20.90;;;;;;;-2.76;81.69;100788.84;5113426;28;20441;-69
2022/11/20 05:03:40;;;;;;;30.97;18.80;;;;;;;-2.75;81.82;100787.94;5113128;28;20219;-69
2022/11/20 05:06:09;;;;;;;38.03;21.77;;;;;;;-2.74;82.75;100800.19;5113711;28;20409;-69
2022/11/20 05:08:36;;;;;;;32.37;21.00;;;;;;;-2.76;82.72;100788.84;5117125;28;20412;-69
2022/11/20 05:11:05;;;;;;;31.23;19.57;;;;;;;-2.75;82.08;100795.81;5116857;28;20443;-69
2022/11/20 05:13:31;;;;;;;34.03;19.87;;;;;;;-2.76;82.60;100797.56;5116854;28;20448;-69
2022/11/20 05:16:13;;;;;;;40.43;21.60;;;;;;;-2.75;81.97;100795.81;5116679;28;20420;-69
2022/11/20 05:18:40;;;;;;;38.03;20.00;;;;;;;-2.75;83.02;100799.31;5116697;28;20209;-69
2022/11/20 05:21:08;;;;;;;28.80;19.67;;;;;;;-2.74;81.49;100806.28;5116611;28;20448;-69
2022/11/20 05:23:35;;;;;;;48.43;23.03;;;;;;;-2.71;82.74;100806.22;5116519;28;20445;-69
2022/11/20 05:26:02;;;;;;;36.83;21.70;;;;;;;-2.74;82.17;100793.19;5116837;28;20448;-69
2022/11/20 05:28:30;;;;;;;33.93;20.57;;;;;;;-2.74;82.49;100794.94;5116456;28;20429;-69
2022/11/20 05:31:08;;;;;;;34.93;20.63;;;;;;;-2.73;81.28;100786.19;5117039;28;20426;-69
2022/11/20 05:33:35;;;;;;;34.00;21.77;;;;;;;-2.73;81.86;100792.31;5116648;28;20446;-69
2022/11/20 05:36:05;;;;;;;34.80;19.53;;;;;;;-2.73;82.36;100791.41;5116347;28;20425;-69
2022/11/20 05:38:32;;;;;;;31.43;20.03;;;;;;;-2.71;83.04;100795.75;5116648;28;20616;-68
2022/11/20 05:41:09;;;;;;;36.40;20.53;;;;;;;-2.70;81.31;100799.25;5116282;28;20440;-68
2022/11/20 05:43:38;;;;;;;31.83;21.10;;;;;;;-2.70;81.86;100797.50;5116150;28;20445;-68
2022/11/20 05:46:05;;;;;;;30.33;19.93;;;;;;;-2.74;81.80;100803.66;5116831;28;20430;-69
2022/11/20 05:48:32;;;;;;;37.97;21.07;;;;;;;-2.73;83.14;100802.78;5116439;28;20182;-69
2022/11/20 05:51:00;;;;;;;31.53;20.70;;;;;;;-2.72;82.99;100796.66;5116070;28;20566;-69
2022/11/20 05:53:27;;;;;;;40.27;22.93;;;;;;;-2.68;82.68;100794.81;5115969;28;20449;-68
2022/11/20 05:56:01;;;;;;;34.33;21.60;;;;;;;-2.67;83.12;100781.69;5116555;28;20429;-67
2022/11/20 05:58:28;;;;;;;42.23;21.47;;;;;;;-2.66;81.82;100791.31;5115973;28;20421;-67
2022/11/20 06:00:55;;;;;;;37.33;21.13;;;;;;;-2.62;81.91;100792.13;5116167;28;20421;-67
2022/11/20 06:03:21;;;;;;;33.93;22.40;;;;;;;-2.63;83.04;100799.13;5115849;28;20448;-67
2022/11/20 06:05:47;;;;;;;39.07;22.43;;;;;;;-2.62;81.60;100792.97;5116104;28;20555;-67
2022/11/20 06:08:14;;;;;;;33.73;22.00;;;;;;;-2.60;81.35;100795.56;5116090;28;20563;-67
2022/11/20 06:10:40;;;;;;;39.63;22.83;;;;;;;-2.64;81.21;100791.28;5115626;28;20461;-67
2022/11/20 06:13:06;;;;;;;32.03;22.10;;;;;;;-2.63;81.86;100790.41;5115967;28;20721;-67
2022/11/20 06:15:33;;;;;;;39.23;22.20;;;;;;;-2.64;81.45;100786.03;5115607;28;20186;-67
2022/11/20 06:17:59;;;;;;;42.23;21.13;;;;;;;-2.66;81.83;100791.31;5114569;28;20936;-67
2022/11/20 06:20:25;;;;;;;43.73;23.10;;;;;;;-2.69;82.53;100787.88;5115556;28;20441;-67
2022/11/20 06:22:52;;;;;;;41.03;22.50;;;;;;;-2.65;82.18;100784.31;5115784;28;20453;-67
2022/11/20 06:25:18;;;;;;;31.00;19.53;;;;;;;-2.68;81.43;100792.19;5115641;28;20429;-67
2022/11/20 06:27:44;;;;;;;37.17;22.40;;;;;;;-2.70;82.91;100784.38;5115652;28;20429;-67
2022/11/20 06:30:11;;;;;;;40.93;22.20;;;;;;;-2.69;81.24;100788.72;5115802;28;20710;-67
2022/11/20 06:32:38;;;;;;;38.10;23.63;;;;;;;-2.64;82.46;100789.50;5115516;28;20449;-67
2022/11/20 06:35:04;;;;;;;40.60;22.00;;;;;;;-2.68;82.04;100786.97;5115179;28;20425;-67
2022/11/20 06:37:30;;;;;;;35.63;22.73;;;;;;;-2.70;81.96;100799.25;5115171;28;20475;-67
2022/11/20 06:39:57;;;;;;;36.30;22.00;;;;;;;-2.75;80.78;100794.09;5115161;28;20663;-67
2022/11/20 06:42:23;;;;;;;41.50;23.73;;;;;;;-2.75;81.77;100795.81;5115086;28;20190;-67
2022/11/20 06:44:50;;;;;;;44.73;24.93;;;;;;;-2.83;81.53;100796.78;5115607;28;20433;-67
2022/11/20 06:47:16;;;;;;;38.07;23.60;;;;;;;-2.82;82.74;100805.56;5115054;28;20440;-67
2022/11/20 06:49:42;;;;;;;36.43;21.43;;;;;;;-2.86;82.24;100809.97;5115133;28;20457;-67
2022/11/20 06:52:09;;;;;;;35.90;21.37;;;;;;;-2.88;82.41;100803.88;5114922;28;20447;-67
2022/11/20 06:54:35;;;;;;;36.27;20.30;;;;;;;-2.89;81.54;100798.66;5114846;28;20434;-67
2022/11/20 06:57:01;;;;;;;36.20;20.70;;;;;;;-2.92;81.97;100799.59;5114814;28;20421;-67
2022/11/20 06:59:27;;;;;;;41.00;23.10;;;;;;;-2.88;82.54;100801.25;5115030;28;20426;-68
2022/11/20 07:01:54;;;;;;;39.20;22.47;;;;;;;-2.93;81.94;100796.97;5114726;28;20180;-68
2022/11/20 07:04:20;;;;;;;42.60;24.03;;;;;;;-2.93;82.89;100800.47;5114616;28;20445;-67
2022/11/20 07:06:48;;;;;;;37.37;23.43;;;;;;;-2.95;82.15;100793.50;5114613;28;20428;-67
2022/11/20 07:09:14;;;;;;;33.77;22.07;;;;;;;-2.97;81.07;100804.00;5114702;28;20433;-67
2022/11/20 07:11:41;;;;;;;32.47;21.40;;;;;;;-3.00;81.14;100799.69;5114660;28;20421;-69
2022/11/20 07:14:07;;;;;;;38.43;21.80;;;;;;;-2.98;82.61;100801.44;5114432;28;20815;-69
2022/11/20 07:16:33;;;;;;;41.23;22.47;;;;;;;-3.06;82.48;100812.03;5114393;28;20436;-69
2022/11/20 07:19:00;;;;;;;40.00;21.87;;;;;;;-3.05;81.75;100816.38;5114388;28;20440;-69
2022/11/20 07:21:26;;;;;;;35.47;20.07;;;;;;;-3.07;82.79;100818.13;5114151;28;20197;-69
2022/11/20 07:23:52;;;;;;;37.90;22.03;;;;;;;-3.08;80.93;100819.91;5114293;28;20452;-69
2022/11/20 07:26:19;;;;;;;32.03;20.37;;;;;;;-3.12;82.85;100825.19;5114292;28;20911;-69
2022/11/20 07:28:45;;;;;;;35.27;21.43;;;;;;;-3.13;82.35;100816.47;5114218;28;20429;-69
2022/11/20 07:31:12;;;;;;;36.93;21.17;;;;;;;-3.15;81.80;100818.25;5114362;28;20830;-69
2022/11/20 07:33:44;;;;;;;35.57;21.27;;;;;;;-3.12;81.46;100826.06;5114208;28;20532;-69
2022/11/20 07:36:11;;;;;;;35.97;21.63;;;;;;;-3.10;83.18;100810.34;5114376;28;20430;-69
2022/11/20 07:38:37;;;;;;;41.97;21.27;;;;;;;-3.07;82.00;100815.50;5114059;28;20426;-69
2022/11/20 07:41:04;;;;;;;35.87;21.97;;;;;;;-3.06;82.56;100815.50;5114284;28;20425;-69
2022/11/20 07:43:30;;;;;;;47.37;22.63;;;;;;;-3.04;82.34;100812.84;5113907;28;20459;-69
2022/11/20 07:46:00;;;;;;;31.93;20.07;;;;;;;-3.00;83.20;100825.00;5095758;28;20437;-69
2022/11/20 07:48:26;;;;;;;42.30;22.47;;;;;;;-3.00;81.70;100825.00;5114256;28;20436;-69
2022/11/20 07:50:54;;;;;;;34.80;21.73;;;;;;;-2.95;82.31;100819.72;5113765;28;20460;-69
2022/11/20 07:53:21;;;;;;;33.20;20.67;;;;;;;-2.95;82.02;100822.34;5114453;28;20831;-69
2022/11/20 07:55:48;;;;;;;42.07;22.67;;;;;;;-2.94;82.10;100822.31;5114207;28;20781;-70
2022/11/20 07:58:14;;;;;;;37.10;21.57;;;;;;;-2.93;83.10;100823.19;5113860;28;20437;-70
2022/11/20 08:00:41;;;;;;;36.13;21.63;;;;;;;-2.92;81.61;100817.94;5114204;28;20818;-70
2022/11/20 08:03:07;;;;;;;40.37;21.37;;;;;;;-2.93;82.45;100816.19;5113661;28;20468;-69
2022/11/20 08:05:33;;;;;;;40.10;21.57;;;;;;;-2.81;81.11;100813.38;5114447;28;20410;-69
2022/11/20 08:08:00;;;;;;;42.80;23.10;;;;;;;-2.84;81.86;100809.94;5113788;28;20437;-69
2022/11/20 08:10:27;;;;;;;33.60;21.10;;;;;;;-2.79;81.76;100808.97;5113746;28;20798;-69
2022/11/20 08:15:39;;;;;;;32.30;21.73;;;;;;;-2.77;81.79;100801.09;5113745;28;20871;-68
2022/11/20 08:18:11;;;;;;;48.90;24.67;;;;;;;-2.69;82.73;100798.34;5113679;28;20433;-69
2022/11/20 08:21:01;;;;;;;44.43;25.60;;;;;;;-2.61;84.06;100796.44;5113396;28;20433;-68
2022/11/20 08:23:27;;;;;;;45.23;25.73;;;;;;;-2.48;82.97;100791.88;5113571;28;20445;-68
2022/11/20 08:25:53;;;;;;;40.00;24.30;;;;;;;-2.35;83.90;100793.38;5113909;28;20432;-69
2022/11/20 08:28:20;;;;;;;45.50;27.50;;;;;;;-2.24;83.95;100790.59;5113667;28;20432;-68
2022/11/20 08:30:49;;;;;;;49.00;27.83;;;;;;;-2.15;84.08;100791.28;5113597;28;20659;-68
2022/11/20 08:33:17;;;;;;;59.80;29.00;;;;;;;-1.99;83.10;100793.59;5113409;28;20449;-68
2022/11/20 08:35:44;;;;;;;55.90;28.97;;;;;;;-1.89;83.37;100802.16;5113815;28;20230;-67
2022/11/20 08:38:10;;;;;;;55.53;29.50;;;;;;;-1.77;83.80;100804.56;5113761;28;20189;-69
2022/11/20 08:40:36;;;;;;;59.97;33.17;;;;;;;-1.66;83.65;100807.81;5113883;28;20204;-68
2022/11/20 08:43:03;;;;;;;65.47;32.50;;;;;;;-1.57;83.68;100804.16;5117103;28;20224;-68
2022/11/20 08:45:29;;;;;;;55.03;30.73;;;;;;;-1.40;83.43;100803.81;5117560;28;20559;-69
2022/11/20 08:48:01;;;;;;;54.13;30.73;;;;;;;-1.37;83.04;100807.22;5117863;28;20246;-68
2022/11/20 08:50:27;;;;;;;57.87;31.13;;;;;;;-1.28;83.43;100800.91;5117612;28;20484;-68
2022/11/20 08:52:53;;;;;;;50.30;29.83;;;;;;;-1.14;83.34;100800.59;5117169;28;20713;-68
2022/11/20 08:55:20;;;;;;;54.73;30.73;;;;;;;-1.08;82.78;100797.81;5117607;28;20200;-68
2022/11/20 08:57:46;;;;;;;61.63;31.97;;;;;;;-1.02;82.57;100799.47;5117627;28;20190;-68
2022/11/20 09:00:16;;;;;;;55.03;30.57;;;;;;;-0.87;82.71;100804.34;5117810;28;20218;-68
2022/11/20 09:02:43;;;;;;;60.03;31.80;;;;;;;-0.67;83.10;100803.88;5117334;28;20571;-68
2022/11/20 09:05:09;;;;;;;50.17;30.27;;;;;;;-0.54;82.50;100797.41;5117191;28;20194;-68
2022/11/20 09:07:35;;;;;;;58.37;33.20;;;;;;;-0.43;81.60;100803.28;5117110;28;20190;-68
2022/11/20 09:10:03;;;;;;;62.63;33.77;;;;;;;-0.30;80.90;100806.47;5117303;28;20202;-68
2022/11/20 09:12:50;;;;;;;58.87;32.30;;;;;;;-0.19;80.79;100800.94;5117628;28;20222;-68
2022/11/20 09:15:17;;;;;;;67.97;32.43;;;;;;;-0.07;79.96;100803.22;5117133;28;20183;-68
2022/11/20 09:17:51;;;;;;;59.37;32.80;;;;;;;-0.05;79.16;100801.44;5116979;28;20188;-68
2022/11/20 09:20:18;;;;;;;60.53;32.30;;;;;;;-0.04;79.34;100794.38;5117424;28;20198;-68
2022/11/20 09:22:44;;;;;;;56.93;33.73;;;;;;;0.11;79.26;100790.47;5117231;28;20211;-68
2022/11/20 09:25:10;;;;;;;68.83;34.10;;;;;;;0.25;79.11;100785.69;5117407;28;20216;-68
2022/11/20 09:27:37;;;;;;;54.57;31.37;;;;;;;0.44;79.06;100783.38;5116730;28;20192;-68
2022/11/20 09:30:04;;;;;;;58.63;31.80;;;;;;;0.66;78.24;100780.13;5116655;28;20570;-68
2022/11/20 09:32:31;;;;;;;52.20;32.23;;;;;;;0.82;79.04;100776.97;5116617;28;20214;-68
2022/11/20 09:34:57;;;;;;;56.10;32.83;;;;;;;0.99;78.02;100773.81;5116675;28;20193;-68
2022/11/20 09:37:23;;;;;;;71.03;32.00;;;;;;;1.14;76.93;100771.59;5116620;28;20205;-68
2022/11/20 09:39:50;;;;;;;57.23;31.43;;;;;;;1.19;77.10;100767.88;5116925;28;20562;-69
2022/11/20 09:42:43;;;;;;;51.40;29.70;;;;;;;1.35;77.14;100772.66;5116690;28;20182;-68
2022/11/20 09:45:33;;;;;;;57.57;29.17;;;;;;;1.57;76.23;100768.38;5116835;28;20178;-68
2022/11/20 09:48:18;;;;;;;66.10;32.30;;;;;;;1.72;75.77;100761.72;5116775;28;20169;-68
2022/11/20 09:50:59;;;;;;;57.60;31.40;;;;;;;1.66;76.29;100749.59;5116285;28;20197;-68
2022/11/20 09:53:34;;;;;;;53.80;30.57;;;;;;;1.81;76.35;100749.97;5116270;28;20219;-70
2022/11/20 09:56:03;;;;;;;56.93;32.00;;;;;;;1.84;76.22;100755.16;5116426;28;20697;-70
2022/11/20 09:58:39;;;;;;;55.50;31.37;;;;;;;1.88;75.46;100754.13;5116355;28;20181;-70
2022/11/20 10:01:23;;;;;;;46.17;29.23;;;;;;;1.86;75.47;100756.81;5116273;28;20169;-70
2022/11/20 10:04:03;;;;;;;53.63;29.10;;;;;;;1.90;75.48;100745.22;5116369;28;20250;-69
2022/11/20 10:06:38;;;;;;;55.63;32.57;;;;;;;1.96;75.77;100740.66;5116484;28;20191;-69
2022/11/20 10:09:39;;;;;;;57.27;31.70;;;;;;;2.02;75.50;100740.44;5116331;28;20169;-70
2022/11/20 10:12:32;;;;;;;61.83;30.63;;;;;;;2.13;75.30;100740.88;5115982;28;20219;-69
2022/11/20 10:15:16;;;;;;;57.90;30.23;;;;;;;2.17;75.33;100746.94;5115794;28;20189;-69
2022/11/20 10:18:13;;;;;;;53.30;31.73;;;;;;;2.18;75.49;100751.28;5115783;28;20546;-69
2022/11/20 10:20:48;;;;;;;46.63;29.33;;;;;;;2.24;75.24;100744.00;5115462;28;20196;-69
2022/11/20 10:23:27;;;;;;;60.53;30.53;;;;;;;2.35;75.23;100738.34;5115708;28;20216;-69
2022/11/20 10:26:12;;;;;;;47.43;29.43;;;;;;;2.41;75.91;100731.94;5115793;28;20180;-69
2022/11/20 10:29:08;;;;;;;46.17;27.57;;;;;;;2.49;75.53;100735.13;5115792;28;20176;-69
2022/11/20 10:31:45;;;;;;;44.97;27.87;;;;;;;2.64;74.69;100726.63;5115545;28;20247;-69
2022/11/20 10:34:24;;;;;;;45.17;26.63;;;;;;;2.82;74.22;100719.75;5115621;28;20589;-69
2022/11/20 10:37:20;;;;;;;39.57;25.50;;;;;;;3.08;74.20;100707.25;5115638;28;20181;-69
2022/11/20 10:40:24;;;;;;;36.83;23.20;;;;;;;3.17;73.10;100709.53;5107212;28;20649;-69
2022/11/20 10:43:00;;;;;;;35.47;23.03;;;;;;;3.17;72.76;100707.75;5115196;28;20202;-69
2022/11/20 10:45:42;;;;;;;35.47;23.73;;;;;;;3.15;72.69;100695.50;5115452;28;20526;-69
2022/11/20 10:48:24;;;;;;;38.23;23.47;;;;;;;3.14;72.81;100692.00;5115113;28;20180;-69
2022/11/20 10:51:10;;;;;;;41.97;25.00;;;;;;;3.12;73.01;100695.63;5115167;28;20216;-69
2022/11/20 10:54:04;;;;;;;42.67;25.33;;;;;;;3.09;72.79;100698.38;5115352;28;20570;-69
2022/11/20 10:56:41;;;;;;;42.27;25.97;;;;;;;3.14;72.41;100689.34;5115046;28;20193;-69
2022/11/20 11:00:13;;;;;;;46.87;27.73;;;;;;;3.10;72.75;100692.19;5115138;28;20198;-69
2022/11/20 11:02:46;;;;;;;43.30;26.33;;;;;;;3.05;72.57;100687.09;5012606;28;20208;-69
2022/11/20 11:05:34;;;;;;;41.93;24.33;;;;;;;3.14;72.36;100688.50;5012305;28;20591;-69
2022/11/20 11:08:00;;;;;;;47.03;24.77;;;;;;;3.14;72.77;100683.22;5081882;28;20201;-69
2022/11/20 11:10:35;;;;;;;35.20;23.37;;;;;;;3.16;72.80;100676.91;5114735;28;20202;-70
2022/11/20 11:13:01;;;;;;;43.53;26.27;;;;;;;3.21;72.45;100679.38;5114857;28;20209;-69
2022/11/20 11:15:38;;;;;;;36.93;24.17;;;;;;;3.18;73.17;100671.53;5115032;28;20193;-69
2022/11/20 11:18:05;;;;;;;47.73;27.77;;;;;;;3.20;72.43;100667.91;5114789;28;20178;-69
2022/11/20 11:20:32;;;;;;;40.40;26.70;;;;;;;3.19;72.51;100658.25;5114501;28;20682;-69
2022/11/20 11:22:59;;;;;;;46.77;27.20;;;;;;;3.19;73.26;100666.19;5114497;28;20567;-69
2022/11/20 11:25:33;;;;;;;40.07;26.07;;;;;;;3.17;72.97;100662.75;5114305;28;20241;-69
2022/11/20 11:28:03;;;;;;;41.07;25.80;;;;;;;3.20;72.66;100659.13;5114564;28;20178;-69
2022/11/20 11:30:40;;;;;;;43.50;26.77;;;;;;;3.20;72.59;100652.03;5114442;28;20202;-69